sensor_id;sensor_type;location;lat;lon;timestamp;P1;durP1;ratioP1;P2;durP2;ratioP2
4307;SDS011;2167;53.448;9.984;2022-08-03T00:01:16;9.40;;;6.67;;
4307;SDS011;2167;53.448;9.984;2022-08-03T00:03:42;6.93;;;6.03;;
4307;SDS011;2167;53.448;9.984;2022-08-03T00:06:08;6.90;;;6.30;;
4307;SDS011;2167;53.448;9.984;2022-08-03T00:08:33;8.23;;;6.70;;
4307;SDS011;2167;53.448;9.984;2022-08-03T00:10:59;8.77;;;5.93;;
4307;SDS011;2167;53.448;9.984;2022-08-03T00:13:25;8.80;;;6.40;;
4307;SDS011;2167;53.448;9.984;2022-08-03T00:15:51;6.70;;;6.10;;
4307;SDS011;2167;53.448;9.984;2022-08-03T00:18:17;7.03;;;6.00;;
4307;SDS011;2167;53.448;9.984;2022-08-03T00:20:43;6.27;;;5.70;;
4307;SDS011;2167;53.448;9.984;2022-08-03T00:23:08;7.87;;;6.33;;
4307;SDS011;2167;53.448;9.984;2022-08-03T00:25:34;5.73;;;5.13;;
4307;SDS011;2167;53.448;9.984;2022-08-03T00:28:01;8.03;;;5.87;;
4307;SDS011;2167;53.448;9.984;2022-08-03T00:30:27;6.23;;;5.73;;
4307;SDS011;2167;53.448;9.984;2022-08-03T00:32:53;10.17;;;6.17;;
4307;SDS011;2167;53.448;9.984;2022-08-03T00:35:19;8.93;;;7.00;;
4307;SDS011;2167;53.448;9.984;2022-08-03T00:37:45;6.40;;;5.70;;
4307;SDS011;2167;53.448;9.984;2022-08-03T00:40:11;7.43;;;6.17;;
4307;SDS011;2167;53.448;9.984;2022-08-03T00:42:45;6.80;;;6.10;;
4307;SDS011;2167;53.448;9.984;2022-08-03T00:45:12;7.67;;;5.80;;
4307;SDS011;2167;53.448;9.984;2022-08-03T00:47:38;6.77;;;6.07;;
4307;SDS011;2167;53.448;9.984;2022-08-03T00:50:04;7.43;;;6.70;;
4307;SDS011;2167;53.448;9.984;2022-08-03T00:52:30;6.70;;;6.10;;
4307;SDS011;2167;53.448;9.984;2022-08-03T00:54:56;6.40;;;5.80;;
4307;SDS011;2167;53.448;9.984;2022-08-03T00:57:21;6.80;;;6.10;;
4307;SDS011;2167;53.448;9.984;2022-08-03T00:59:47;7.50;;;6.40;;
4307;SDS011;2167;53.448;9.984;2022-08-03T01:02:12;7.80;;;7.07;;
4307;SDS011;2167;53.448;9.984;2022-08-03T01:04:38;7.17;;;6.47;;
4307;SDS011;2167;53.448;9.984;2022-08-03T01:07:06;5.67;;;5.07;;
4307;SDS011;2167;53.448;9.984;2022-08-03T01:16:05;6.83;;;6.30;;
4307;SDS011;2167;53.448;9.984;2022-08-03T01:18:40;6.40;;;5.80;;
4307;SDS011;2167;53.448;9.984;2022-08-03T01:21:25;6.43;;;5.83;;
4307;SDS011;2167;53.448;9.984;2022-08-03T01:23:58;6.57;;;5.93;;
4307;SDS011;2167;53.448;9.984;2022-08-03T01:26:45;7.00;;;6.30;;
4307;SDS011;2167;53.448;9.984;2022-08-03T01:31:48;6.77;;;6.17;;
4307;SDS011;2167;53.448;9.984;2022-08-03T01:34:43;6.40;;;5.80;;
4307;SDS011;2167;53.448;9.984;2022-08-03T01:37:24;6.43;;;5.53;;
4307;SDS011;2167;53.448;9.984;2022-08-03T01:39:55;7.27;;;6.20;;
4307;SDS011;2167;53.448;9.984;2022-08-03T01:42:26;7.47;;;6.10;;
4307;SDS011;2167;53.448;9.984;2022-08-03T01:44:54;6.80;;;6.17;;
4307;SDS011;2167;53.448;9.984;2022-08-03T01:47:23;6.50;;;5.90;;
4307;SDS011;2167;53.448;9.984;2022-08-03T01:49:51;7.47;;;6.50;;
4307;SDS011;2167;53.448;9.984;2022-08-03T01:52:19;8.53;;;7.47;;
4307;SDS011;2167;53.448;9.984;2022-08-03T01:54:47;6.33;;;5.73;;
4307;SDS011;2167;53.448;9.984;2022-08-03T01:57:15;6.00;;;5.40;;
4307;SDS011;2167;53.448;9.984;2022-08-03T01:59:42;6.80;;;6.07;;
4307;SDS011;2167;53.448;9.984;2022-08-03T02:02:12;6.20;;;5.70;;
4307;SDS011;2167;53.448;9.984;2022-08-03T02:04:40;7.07;;;6.10;;
4307;SDS011;2167;53.448;9.984;2022-08-03T02:07:07;9.40;;;6.63;;
4307;SDS011;2167;53.448;9.984;2022-08-03T02:09:36;6.70;;;5.83;;
4307;SDS011;2167;53.448;9.984;2022-08-03T02:12:06;6.50;;;5.90;;
4307;SDS011;2167;53.448;9.984;2022-08-03T02:14:33;8.10;;;6.70;;
4307;SDS011;2167;53.448;9.984;2022-08-03T02:17:00;6.63;;;6.03;;
4307;SDS011;2167;53.448;9.984;2022-08-03T02:19:26;7.83;;;6.10;;
4307;SDS011;2167;53.448;9.984;2022-08-03T02:21:54;5.30;;;4.80;;
4307;SDS011;2167;53.448;9.984;2022-08-03T02:24:22;6.97;;;6.23;;
4307;SDS011;2167;53.448;9.984;2022-08-03T02:26:48;6.07;;;5.47;;
4307;SDS011;2167;53.448;9.984;2022-08-03T02:29:17;6.53;;;5.93;;
4307;SDS011;2167;53.448;9.984;2022-08-03T02:31:48;6.97;;;6.30;;
4307;SDS011;2167;53.448;9.984;2022-08-03T02:34:15;7.50;;;5.83;;
4307;SDS011;2167;53.448;9.984;2022-08-03T02:36:43;7.33;;;6.30;;
4307;SDS011;2167;53.448;9.984;2022-08-03T02:39:14;6.30;;;5.70;;
4307;SDS011;2167;53.448;9.984;2022-08-03T02:41:45;8.70;;;7.43;;
4307;SDS011;2167;53.448;9.984;2022-08-03T02:44:13;7.90;;;7.10;;
4307;SDS011;2167;53.448;9.984;2022-08-03T02:46:44;7.27;;;6.63;;
4307;SDS011;2167;53.448;9.984;2022-08-03T02:49:12;7.20;;;5.97;;
4307;SDS011;2167;53.448;9.984;2022-08-03T02:51:40;7.63;;;6.53;;
4307;SDS011;2167;53.448;9.984;2022-08-03T02:54:07;7.10;;;6.40;;
4307;SDS011;2167;53.448;9.984;2022-08-03T02:56:34;6.40;;;5.47;;
4307;SDS011;2167;53.448;9.984;2022-08-03T02:59:01;7.13;;;6.43;;
4307;SDS011;2167;53.448;9.984;2022-08-03T03:01:29;7.90;;;6.33;;
4307;SDS011;2167;53.448;9.984;2022-08-03T03:03:56;7.90;;;7.10;;
4307;SDS011;2167;53.448;9.984;2022-08-03T03:06:23;8.33;;;6.43;;
4307;SDS011;2167;53.448;9.984;2022-08-03T03:08:50;10.70;;;6.93;;
4307;SDS011;2167;53.448;9.984;2022-08-03T03:11:17;7.80;;;7.10;;
4307;SDS011;2167;53.448;9.984;2022-08-03T03:13:45;10.77;;;7.17;;
4307;SDS011;2167;53.448;9.984;2022-08-03T03:16:13;8.87;;;5.20;;
4307;SDS011;2167;53.448;9.984;2022-08-03T03:18:41;8.27;;;7.03;;
4307;SDS011;2167;53.448;9.984;2022-08-03T03:21:09;7.53;;;6.80;;
4307;SDS011;2167;53.448;9.984;2022-08-03T03:23:35;11.13;;;6.97;;
4307;SDS011;2167;53.448;9.984;2022-08-03T03:26:02;8.07;;;6.57;;
4307;SDS011;2167;53.448;9.984;2022-08-03T03:28:29;8.90;;;7.00;;
4307;SDS011;2167;53.448;9.984;2022-08-03T03:30:55;7.53;;;6.83;;
4307;SDS011;2167;53.448;9.984;2022-08-03T03:33:22;7.73;;;7.03;;
4307;SDS011;2167;53.448;9.984;2022-08-03T03:35:48;7.77;;;6.70;;
4307;SDS011;2167;53.448;9.984;2022-08-03T03:38:16;12.90;;;7.30;;
4307;SDS011;2167;53.448;9.984;2022-08-03T03:40:42;8.43;;;7.57;;
4307;SDS011;2167;53.448;9.984;2022-08-03T03:43:08;9.13;;;7.00;;
4307;SDS011;2167;53.448;9.984;2022-08-03T03:45:35;7.73;;;6.53;;
4307;SDS011;2167;53.448;9.984;2022-08-03T03:48:02;7.53;;;5.70;;
4307;SDS011;2167;53.448;9.984;2022-08-03T03:50:29;8.27;;;7.10;;
4307;SDS011;2167;53.448;9.984;2022-08-03T03:52:57;8.73;;;7.00;;
4307;SDS011;2167;53.448;9.984;2022-08-03T03:55:23;7.80;;;6.83;;
4307;SDS011;2167;53.448;9.984;2022-08-03T03:57:48;8.17;;;7.37;;
4307;SDS011;2167;53.448;9.984;2022-08-03T04:00:15;7.63;;;6.87;;
4307;SDS011;2167;53.448;9.984;2022-08-03T04:02:42;9.73;;;7.40;;
4307;SDS011;2167;53.448;9.984;2022-08-03T04:05:08;7.47;;;6.77;;
4307;SDS011;2167;53.448;9.984;2022-08-03T04:08:26;7.47;;;6.67;;
4307;SDS011;2167;53.448;9.984;2022-08-03T04:13:57;9.23;;;6.93;;
4307;SDS011;2167;53.448;9.984;2022-08-03T04:16:31;10.80;;;7.57;;
4307;SDS011;2167;53.448;9.984;2022-08-03T04:19:01;7.63;;;6.90;;
4307;SDS011;2167;53.448;9.984;2022-08-03T04:21:47;7.93;;;7.17;;
4307;SDS011;2167;53.448;9.984;2022-08-03T04:24:15;9.23;;;6.70;;
4307;SDS011;2167;53.448;9.984;2022-08-03T04:26:42;9.03;;;8.00;;
4307;SDS011;2167;53.448;9.984;2022-08-03T04:29:12;7.87;;;7.13;;
4307;SDS011;2167;53.448;9.984;2022-08-03T04:31:39;8.43;;;7.57;;
4307;SDS011;2167;53.448;9.984;2022-08-03T04:34:07;8.40;;;7.43;;
4307;SDS011;2167;53.448;9.984;2022-08-03T04:36:35;7.87;;;7.07;;
4307;SDS011;2167;53.448;9.984;2022-08-03T04:39:12;9.47;;;7.10;;
4307;SDS011;2167;53.448;9.984;2022-08-03T04:41:41;7.10;;;6.50;;
4307;SDS011;2167;53.448;9.984;2022-08-03T04:44:09;7.10;;;6.40;;
4307;SDS011;2167;53.448;9.984;2022-08-03T04:46:36;8.90;;;8.00;;
4307;SDS011;2167;53.448;9.984;2022-08-03T04:49:04;7.00;;;6.37;;
4307;SDS011;2167;53.448;9.984;2022-08-03T04:51:31;8.70;;;7.10;;
4307;SDS011;2167;53.448;9.984;2022-08-03T04:54:02;10.43;;;8.73;;
4307;SDS011;2167;53.448;9.984;2022-08-03T04:56:28;7.60;;;6.90;;
4307;SDS011;2167;53.448;9.984;2022-08-03T04:58:53;6.57;;;5.97;;
4307;SDS011;2167;53.448;9.984;2022-08-03T05:01:19;8.17;;;6.83;;
4307;SDS011;2167;53.448;9.984;2022-08-03T05:03:46;8.53;;;6.90;;
4307;SDS011;2167;53.448;9.984;2022-08-03T05:06:11;7.77;;;6.97;;
4307;SDS011;2167;53.448;9.984;2022-08-03T05:08:37;9.00;;;6.87;;
4307;SDS011;2167;53.448;9.984;2022-08-03T05:11:03;8.47;;;7.57;;
4307;SDS011;2167;53.448;9.984;2022-08-03T05:13:29;6.63;;;5.93;;
4307;SDS011;2167;53.448;9.984;2022-08-03T05:15:55;6.80;;;6.20;;
4307;SDS011;2167;53.448;9.984;2022-08-03T05:18:21;7.30;;;6.53;;
4307;SDS011;2167;53.448;9.984;2022-08-03T05:20:46;6.97;;;6.27;;
4307;SDS011;2167;53.448;9.984;2022-08-03T05:23:12;7.23;;;6.53;;
4307;SDS011;2167;53.448;9.984;2022-08-03T05:25:37;7.33;;;6.43;;
4307;SDS011;2167;53.448;9.984;2022-08-03T05:28:03;8.13;;;7.33;;
4307;SDS011;2167;53.448;9.984;2022-08-03T05:30:29;7.70;;;6.90;;
4307;SDS011;2167;53.448;9.984;2022-08-03T05:32:55;8.63;;;6.70;;
4307;SDS011;2167;53.448;9.984;2022-08-03T05:35:20;7.23;;;6.53;;
4307;SDS011;2167;53.448;9.984;2022-08-03T05:37:49;7.83;;;7.00;;
4307;SDS011;2167;53.448;9.984;2022-08-03T05:40:14;7.30;;;6.57;;
4307;SDS011;2167;53.448;9.984;2022-08-03T05:42:40;7.27;;;6.57;;
4307;SDS011;2167;53.448;9.984;2022-08-03T05:45:06;11.33;;;6.70;;
4307;SDS011;2167;53.448;9.984;2022-08-03T05:47:44;7.20;;;6.20;;
4307;SDS011;2167;53.448;9.984;2022-08-03T05:50:13;7.03;;;6.43;;
4307;SDS011;2167;53.448;9.984;2022-08-03T05:52:39;6.33;;;5.73;;
4307;SDS011;2167;53.448;9.984;2022-08-03T05:55:05;7.00;;;6.27;;
4307;SDS011;2167;53.448;9.984;2022-08-03T05:57:32;6.80;;;6.20;;
4307;SDS011;2167;53.448;9.984;2022-08-03T05:59:58;6.93;;;6.17;;
4307;SDS011;2167;53.448;9.984;2022-08-03T06:02:24;6.53;;;5.90;;
4307;SDS011;2167;53.448;9.984;2022-08-03T06:04:50;10.30;;;6.40;;
4307;SDS011;2167;53.448;9.984;2022-08-03T06:07:16;6.20;;;5.60;;
4307;SDS011;2167;53.448;9.984;2022-08-03T06:09:42;7.20;;;6.50;;
4307;SDS011;2167;53.448;9.984;2022-08-03T06:12:07;6.90;;;5.83;;
4307;SDS011;2167;53.448;9.984;2022-08-03T06:14:33;6.50;;;5.90;;
4307;SDS011;2167;53.448;9.984;2022-08-03T06:16:58;5.77;;;5.27;;
4307;SDS011;2167;53.448;9.984;2022-08-03T06:19:24;6.63;;;6.03;;
4307;SDS011;2167;53.448;9.984;2022-08-03T06:21:51;6.27;;;5.67;;
4307;SDS011;2167;53.448;9.984;2022-08-03T06:24:18;6.53;;;5.90;;
4307;SDS011;2167;53.448;9.984;2022-08-03T06:26:43;7.07;;;5.53;;
4307;SDS011;2167;53.448;9.984;2022-08-03T06:29:09;5.47;;;4.97;;
4307;SDS011;2167;53.448;9.984;2022-08-03T06:31:35;8.53;;;5.33;;
4307;SDS011;2167;53.448;9.984;2022-08-03T06:34:02;5.43;;;4.93;;
4307;SDS011;2167;53.448;9.984;2022-08-03T06:36:28;5.33;;;4.83;;
4307;SDS011;2167;53.448;9.984;2022-08-03T06:38:56;5.93;;;5.33;;
4307;SDS011;2167;53.448;9.984;2022-08-03T06:41:23;5.67;;;5.17;;
4307;SDS011;2167;53.448;9.984;2022-08-03T06:43:49;5.57;;;5.10;;
4307;SDS011;2167;53.448;9.984;2022-08-03T06:46:14;8.13;;;5.10;;
4307;SDS011;2167;53.448;9.984;2022-08-03T06:48:40;6.07;;;5.57;;
4307;SDS011;2167;53.448;9.984;2022-08-03T06:51:06;5.73;;;5.13;;
4307;SDS011;2167;53.448;9.984;2022-08-03T06:53:32;5.27;;;4.87;;
4307;SDS011;2167;53.448;9.984;2022-08-03T06:55:57;6.53;;;5.03;;
4307;SDS011;2167;53.448;9.984;2022-08-03T06:58:23;5.20;;;4.70;;
4307;SDS011;2167;53.448;9.984;2022-08-03T07:00:48;4.30;;;3.90;;
4307;SDS011;2167;53.448;9.984;2022-08-03T07:03:14;4.80;;;4.40;;
4307;SDS011;2167;53.448;9.984;2022-08-03T07:05:40;4.57;;;3.93;;
4307;SDS011;2167;53.448;9.984;2022-08-03T07:08:07;4.73;;;4.20;;
4307;SDS011;2167;53.448;9.984;2022-08-03T07:10:33;5.77;;;4.90;;
4307;SDS011;2167;53.448;9.984;2022-08-03T07:12:59;6.43;;;4.40;;
4307;SDS011;2167;53.448;9.984;2022-08-03T07:15:24;6.10;;;4.70;;
4307;SDS011;2167;53.448;9.984;2022-08-03T07:17:50;5.03;;;4.53;;
4307;SDS011;2167;53.448;9.984;2022-08-03T07:20:16;6.43;;;4.67;;
4307;SDS011;2167;53.448;9.984;2022-08-03T07:22:42;6.50;;;4.37;;
4307;SDS011;2167;53.448;9.984;2022-08-03T07:25:11;4.43;;;4.03;;
4307;SDS011;2167;53.448;9.984;2022-08-03T07:27:37;5.17;;;4.57;;
4307;SDS011;2167;53.448;9.984;2022-08-03T07:30:04;9.83;;;4.63;;
4307;SDS011;2167;53.448;9.984;2022-08-03T07:32:32;4.13;;;3.73;;
4307;SDS011;2167;53.448;9.984;2022-08-03T07:34:57;4.27;;;3.90;;
4307;SDS011;2167;53.448;9.984;2022-08-03T07:37:23;10.83;;;4.60;;
4307;SDS011;2167;53.448;9.984;2022-08-03T07:39:49;4.80;;;3.33;;
4307;SDS011;2167;53.448;9.984;2022-08-03T07:42:14;4.97;;;3.97;;
4307;SDS011;2167;53.448;9.984;2022-08-03T07:44:40;5.73;;;3.33;;
4307;SDS011;2167;53.448;9.984;2022-08-03T07:47:06;4.53;;;4.10;;
4307;SDS011;2167;53.448;9.984;2022-08-03T07:49:31;3.93;;;3.53;;
4307;SDS011;2167;53.448;9.984;2022-08-03T07:51:57;4.83;;;3.27;;
4307;SDS011;2167;53.448;9.984;2022-08-03T07:54:41;2.83;;;2.60;;
4307;SDS011;2167;53.448;9.984;2022-08-03T07:57:06;7.60;;;2.63;;
4307;SDS011;2167;53.448;9.984;2022-08-03T07:59:32;3.90;;;2.10;;
4307;SDS011;2167;53.448;9.984;2022-08-03T08:01:59;12.20;;;2.80;;
4307;SDS011;2167;53.448;9.984;2022-08-03T08:04:25;3.20;;;2.33;;
4307;SDS011;2167;53.448;9.984;2022-08-03T08:06:51;3.90;;;2.40;;
4307;SDS011;2167;53.448;9.984;2022-08-03T08:09:16;2.90;;;2.23;;
4307;SDS011;2167;53.448;9.984;2022-08-03T08:11:42;3.00;;;2.70;;
4307;SDS011;2167;53.448;9.984;2022-08-03T08:14:07;3.13;;;2.83;;
4307;SDS011;2167;53.448;9.984;2022-08-03T08:16:33;7.27;;;3.00;;
4307;SDS011;2167;53.448;9.984;2022-08-03T08:18:59;4.00;;;2.23;;
4307;SDS011;2167;53.448;9.984;2022-08-03T08:21:26;3.30;;;2.30;;
4307;SDS011;2167;53.448;9.984;2022-08-03T08:23:51;4.50;;;2.10;;
4307;SDS011;2167;53.448;9.984;2022-08-03T08:26:17;3.50;;;2.93;;
4307;SDS011;2167;53.448;9.984;2022-08-03T08:28:43;7.20;;;2.40;;
4307;SDS011;2167;53.448;9.984;2022-08-03T08:31:08;4.40;;;2.60;;
4307;SDS011;2167;53.448;9.984;2022-08-03T08:33:34;3.73;;;2.87;;
4307;SDS011;2167;53.448;9.984;2022-08-03T08:36:00;3.00;;;2.57;;
4307;SDS011;2167;53.448;9.984;2022-08-03T08:38:26;5.40;;;2.50;;
4307;SDS011;2167;53.448;9.984;2022-08-03T08:40:53;2.73;;;1.90;;
4307;SDS011;2167;53.448;9.984;2022-08-03T08:43:19;5.33;;;2.60;;
4307;SDS011;2167;53.448;9.984;2022-08-03T08:45:46;3.00;;;2.20;;
4307;SDS011;2167;53.448;9.984;2022-08-03T08:48:13;3.43;;;2.17;;
4307;SDS011;2167;53.448;9.984;2022-08-03T08:50:41;2.67;;;2.47;;
4307;SDS011;2167;53.448;9.984;2022-08-03T08:53:07;3.60;;;2.50;;
4307;SDS011;2167;53.448;9.984;2022-08-03T08:55:36;3.53;;;1.77;;
4307;SDS011;2167;53.448;9.984;2022-08-03T08:58:04;4.13;;;2.70;;
4307;SDS011;2167;53.448;9.984;2022-08-03T09:00:30;2.43;;;2.10;;
4307;SDS011;2167;53.448;9.984;2022-08-03T09:02:56;3.83;;;2.13;;
4307;SDS011;2167;53.448;9.984;2022-08-03T09:05:22;3.90;;;2.40;;
4307;SDS011;2167;53.448;9.984;2022-08-03T09:07:48;3.23;;;3.03;;
4307;SDS011;2167;53.448;9.984;2022-08-03T09:10:14;6.67;;;2.87;;
4307;SDS011;2167;53.448;9.984;2022-08-03T09:12:47;7.63;;;2.57;;
4307;SDS011;2167;53.448;9.984;2022-08-03T09:15:30;5.03;;;2.00;;
4307;SDS011;2167;53.448;9.984;2022-08-03T09:17:57;3.30;;;1.90;;
4307;SDS011;2167;53.448;9.984;2022-08-03T09:20:25;3.73;;;2.20;;
4307;SDS011;2167;53.448;9.984;2022-08-03T09:22:55;3.13;;;2.30;;
4307;SDS011;2167;53.448;9.984;2022-08-03T09:25:26;5.00;;;2.30;;
4307;SDS011;2167;53.448;9.984;2022-08-03T09:28:12;3.57;;;2.47;;
4307;SDS011;2167;53.448;9.984;2022-08-03T09:30:44;2.07;;;1.87;;
4307;SDS011;2167;53.448;9.984;2022-08-03T09:33:22;3.60;;;2.00;;
4307;SDS011;2167;53.448;9.984;2022-08-03T09:35:48;5.17;;;2.10;;
4307;SDS011;2167;53.448;9.984;2022-08-03T09:40:41;3.37;;;2.67;;
4307;SDS011;2167;53.448;9.984;2022-08-03T09:43:08;4.13;;;2.03;;
4307;SDS011;2167;53.448;9.984;2022-08-03T09:45:34;2.53;;;2.33;;
4307;SDS011;2167;53.448;9.984;2022-08-03T09:50:47;4.90;;;2.23;;
4307;SDS011;2167;53.448;9.984;2022-08-03T09:53:14;5.43;;;2.33;;
4307;SDS011;2167;53.448;9.984;2022-08-03T09:55:49;16.10;;;2.70;;
4307;SDS011;2167;53.448;9.984;2022-08-03T09:58:15;2.50;;;2.30;;
4307;SDS011;2167;53.448;9.984;2022-08-03T10:00:54;4.83;;;1.97;;
4307;SDS011;2167;53.448;9.984;2022-08-03T10:03:22;2.80;;;1.97;;
4307;SDS011;2167;53.448;9.984;2022-08-03T10:05:49;1.87;;;1.70;;
4307;SDS011;2167;53.448;9.984;2022-08-03T10:08:15;2.63;;;1.90;;
4307;SDS011;2167;53.448;9.984;2022-08-03T10:10:42;2.60;;;1.90;;
4307;SDS011;2167;53.448;9.984;2022-08-03T10:13:16;9.20;;;2.67;;
4307;SDS011;2167;53.448;9.984;2022-08-03T10:15:42;4.80;;;2.13;;
4307;SDS011;2167;53.448;9.984;2022-08-03T10:18:09;4.10;;;1.60;;
4307;SDS011;2167;53.448;9.984;2022-08-03T10:20:54;2.70;;;2.50;;
4307;SDS011;2167;53.448;9.984;2022-08-03T10:23:25;9.50;;;5.40;;
4307;SDS011;2167;53.448;9.984;2022-08-03T10:25:53;2.30;;;1.83;;
4307;SDS011;2167;53.448;9.984;2022-08-03T10:28:25;2.10;;;1.70;;
4307;SDS011;2167;53.448;9.984;2022-08-03T10:30:59;2.40;;;2.10;;
4307;SDS011;2167;53.448;9.984;2022-08-03T10:33:26;2.90;;;2.60;;
4307;SDS011;2167;53.448;9.984;2022-08-03T10:35:56;1.90;;;1.80;;
4307;SDS011;2167;53.448;9.984;2022-08-03T10:38:25;3.70;;;3.40;;
4307;SDS011;2167;53.448;9.984;2022-08-03T10:40:56;3.20;;;1.90;;
4307;SDS011;2167;53.448;9.984;2022-08-03T10:43:26;4.47;;;2.27;;
4307;SDS011;2167;53.448;9.984;2022-08-03T10:45:57;2.40;;;2.03;;
4307;SDS011;2167;53.448;9.984;2022-08-03T10:48:25;2.57;;;2.07;;
4307;SDS011;2167;53.448;9.984;2022-08-03T10:50:51;5.10;;;2.20;;
4307;SDS011;2167;53.448;9.984;2022-08-03T10:53:32;2.07;;;1.80;;
4307;SDS011;2167;53.448;9.984;2022-08-03T10:56:01;4.20;;;2.07;;
4307;SDS011;2167;53.448;9.984;2022-08-03T10:58:46;3.40;;;2.20;;
4307;SDS011;2167;53.448;9.984;2022-08-03T11:01:16;4.07;;;2.43;;
4307;SDS011;2167;53.448;9.984;2022-08-03T11:06:21;3.47;;;2.03;;
4307;SDS011;2167;53.448;9.984;2022-08-03T11:11:34;2.87;;;2.60;;
4307;SDS011;2167;53.448;9.984;2022-08-03T11:14:03;3.17;;;2.20;;
4307;SDS011;2167;53.448;9.984;2022-08-03T11:16:34;2.07;;;1.80;;
4307;SDS011;2167;53.448;9.984;2022-08-03T11:19:09;2.20;;;1.90;;
4307;SDS011;2167;53.448;9.984;2022-08-03T11:38:00;3.20;;;2.10;;
4307;SDS011;2167;53.448;9.984;2022-08-03T11:40:44;3.30;;;2.30;;
4307;SDS011;2167;53.448;9.984;2022-08-03T11:48:33;2.83;;;1.80;;
4307;SDS011;2167;53.448;9.984;2022-08-03T11:51:18;3.23;;;1.87;;
4307;SDS011;2167;53.448;9.984;2022-08-03T11:53:53;1.70;;;1.60;;
4307;SDS011;2167;53.448;9.984;2022-08-03T11:56:24;4.80;;;2.57;;
4307;SDS011;2167;53.448;9.984;2022-08-03T11:58:51;2.87;;;2.67;;
4307;SDS011;2167;53.448;9.984;2022-08-03T12:01:20;1.70;;;1.40;;
4307;SDS011;2167;53.448;9.984;2022-08-03T12:03:47;3.30;;;1.73;;
4307;SDS011;2167;53.448;9.984;2022-08-03T12:06:14;2.90;;;1.47;;
4307;SDS011;2167;53.448;9.984;2022-08-03T12:08:41;3.23;;;1.90;;
4307;SDS011;2167;53.448;9.984;2022-08-03T12:11:08;3.10;;;1.97;;
4307;SDS011;2167;53.448;9.984;2022-08-03T12:16:06;2.53;;;2.07;;
4307;SDS011;2167;53.448;9.984;2022-08-03T12:18:32;3.40;;;2.33;;
4307;SDS011;2167;53.448;9.984;2022-08-03T12:21:08;2.30;;;1.60;;
4307;SDS011;2167;53.448;9.984;2022-08-03T12:23:36;5.37;;;2.40;;
4307;SDS011;2167;53.448;9.984;2022-08-03T12:26:03;4.70;;;1.57;;
4307;SDS011;2167;53.448;9.984;2022-08-03T12:28:30;5.80;;;2.17;;
4307;SDS011;2167;53.448;9.984;2022-08-03T12:31:00;4.63;;;2.60;;
4307;SDS011;2167;53.448;9.984;2022-08-03T12:33:30;2.13;;;1.77;;
4307;SDS011;2167;53.448;9.984;2022-08-03T12:36:04;1.83;;;1.57;;
4307;SDS011;2167;53.448;9.984;2022-08-03T12:38:36;1.77;;;1.67;;
4307;SDS011;2167;53.448;9.984;2022-08-03T12:41:06;2.30;;;1.60;;
4307;SDS011;2167;53.448;9.984;2022-08-03T12:43:46;4.47;;;2.00;;
4307;SDS011;2167;53.448;9.984;2022-08-03T12:46:15;4.53;;;1.63;;
4307;SDS011;2167;53.448;9.984;2022-08-03T12:51:34;4.83;;;1.67;;
4307;SDS011;2167;53.448;9.984;2022-08-03T12:54:21;3.53;;;1.53;;
4307;SDS011;2167;53.448;9.984;2022-08-03T12:59:40;2.10;;;1.90;;
4307;SDS011;2167;53.448;9.984;2022-08-03T13:02:23;2.20;;;2.00;;
4307;SDS011;2167;53.448;9.984;2022-08-03T13:04:51;2.73;;;1.83;;
4307;SDS011;2167;53.448;9.984;2022-08-03T13:07:18;2.47;;;2.03;;
4307;SDS011;2167;53.448;9.984;2022-08-03T13:09:46;2.83;;;2.00;;
4307;SDS011;2167;53.448;9.984;2022-08-03T13:12:14;3.90;;;1.83;;
4307;SDS011;2167;53.448;9.984;2022-08-03T13:14:41;3.33;;;1.70;;
4307;SDS011;2167;53.448;9.984;2022-08-03T13:17:09;3.83;;;1.87;;
4307;SDS011;2167;53.448;9.984;2022-08-03T13:19:35;2.60;;;1.67;;
4307;SDS011;2167;53.448;9.984;2022-08-03T13:22:15;4.03;;;1.60;;
4307;SDS011;2167;53.448;9.984;2022-08-03T13:24:43;7.00;;;1.90;;
4307;SDS011;2167;53.448;9.984;2022-08-03T13:27:09;3.80;;;1.83;;
4307;SDS011;2167;53.448;9.984;2022-08-03T13:29:35;3.47;;;1.60;;
4307;SDS011;2167;53.448;9.984;2022-08-03T13:32:02;5.30;;;2.60;;
4307;SDS011;2167;53.448;9.984;2022-08-03T13:34:28;2.30;;;1.87;;
4307;SDS011;2167;53.448;9.984;2022-08-03T13:36:54;2.20;;;1.53;;
4307;SDS011;2167;53.448;9.984;2022-08-03T13:39:19;2.83;;;2.23;;
4307;SDS011;2167;53.448;9.984;2022-08-03T13:41:45;3.93;;;2.07;;
4307;SDS011;2167;53.448;9.984;2022-08-03T13:44:11;3.50;;;1.60;;
4307;SDS011;2167;53.448;9.984;2022-08-03T13:46:37;2.03;;;1.93;;
4307;SDS011;2167;53.448;9.984;2022-08-03T13:49:03;2.77;;;1.87;;
4307;SDS011;2167;53.448;9.984;2022-08-03T13:51:30;2.70;;;2.07;;
4307;SDS011;2167;53.448;9.984;2022-08-03T13:53:55;2.10;;;1.77;;
4307;SDS011;2167;53.448;9.984;2022-08-03T13:56:26;2.30;;;1.80;;
4307;SDS011;2167;53.448;9.984;2022-08-03T13:58:53;1.73;;;1.63;;
4307;SDS011;2167;53.448;9.984;2022-08-03T14:01:19;2.03;;;1.83;;
4307;SDS011;2167;53.448;9.984;2022-08-03T14:03:45;4.20;;;1.90;;
4307;SDS011;2167;53.448;9.984;2022-08-03T14:06:13;4.87;;;1.43;;
4307;SDS011;2167;53.448;9.984;2022-08-03T14:08:38;3.63;;;1.90;;
4307;SDS011;2167;53.448;9.984;2022-08-03T14:11:04;5.90;;;1.87;;
4307;SDS011;2167;53.448;9.984;2022-08-03T14:13:30;2.23;;;1.50;;
4307;SDS011;2167;53.448;9.984;2022-08-03T14:15:55;4.10;;;1.70;;
4307;SDS011;2167;53.448;9.984;2022-08-03T14:18:21;2.20;;;1.67;;
4307;SDS011;2167;53.448;9.984;2022-08-03T14:20:47;2.30;;;1.70;;
4307;SDS011;2167;53.448;9.984;2022-08-03T14:23:13;3.70;;;1.70;;
4307;SDS011;2167;53.448;9.984;2022-08-03T14:25:39;3.63;;;1.77;;
4307;SDS011;2167;53.448;9.984;2022-08-03T14:28:07;11.33;;;2.80;;
4307;SDS011;2167;53.448;9.984;2022-08-03T14:30:35;2.10;;;2.00;;
4307;SDS011;2167;53.448;9.984;2022-08-03T14:33:02;2.40;;;1.50;;
4307;SDS011;2167;53.448;9.984;2022-08-03T14:35:28;2.60;;;1.60;;
4307;SDS011;2167;53.448;9.984;2022-08-03T14:37:54;4.83;;;2.10;;
4307;SDS011;2167;53.448;9.984;2022-08-03T14:40:19;3.83;;;2.00;;
4307;SDS011;2167;53.448;9.984;2022-08-03T14:42:45;4.63;;;2.00;;
4307;SDS011;2167;53.448;9.984;2022-08-03T14:45:11;5.13;;;1.80;;
4307;SDS011;2167;53.448;9.984;2022-08-03T14:47:37;1.50;;;1.40;;
4307;SDS011;2167;53.448;9.984;2022-08-03T14:50:03;5.13;;;1.77;;
4307;SDS011;2167;53.448;9.984;2022-08-03T14:52:30;2.47;;;1.47;;
4307;SDS011;2167;53.448;9.984;2022-08-03T14:54:57;2.53;;;1.97;;
4307;SDS011;2167;53.448;9.984;2022-08-03T14:57:22;3.20;;;2.30;;
4307;SDS011;2167;53.448;9.984;2022-08-03T14:59:48;2.07;;;1.87;;
4307;SDS011;2167;53.448;9.984;2022-08-03T15:02:14;4.73;;;1.70;;
4307;SDS011;2167;53.448;9.984;2022-08-03T15:04:39;2.40;;;2.00;;
4307;SDS011;2167;53.448;9.984;2022-08-03T15:07:05;2.40;;;1.60;;
4307;SDS011;2167;53.448;9.984;2022-08-03T15:09:31;3.60;;;1.60;;
4307;SDS011;2167;53.448;9.984;2022-08-03T15:11:57;6.43;;;1.80;;
4307;SDS011;2167;53.448;9.984;2022-08-03T15:14:23;3.07;;;2.00;;
4307;SDS011;2167;53.448;9.984;2022-08-03T15:16:48;3.47;;;1.77;;
4307;SDS011;2167;53.448;9.984;2022-08-03T15:19:14;5.27;;;1.97;;
4307;SDS011;2167;53.448;9.984;2022-08-03T15:21:39;1.77;;;1.60;;
4307;SDS011;2167;53.448;9.984;2022-08-03T15:24:05;3.17;;;1.70;;
4307;SDS011;2167;53.448;9.984;2022-08-03T15:26:31;4.10;;;1.83;;
4307;SDS011;2167;53.448;9.984;2022-08-03T15:28:56;5.37;;;1.50;;
4307;SDS011;2167;53.448;9.984;2022-08-03T15:31:22;2.27;;;1.63;;
4307;SDS011;2167;53.448;9.984;2022-08-03T15:33:48;2.03;;;1.47;;
4307;SDS011;2167;53.448;9.984;2022-08-03T15:36:15;5.67;;;1.53;;
4307;SDS011;2167;53.448;9.984;2022-08-03T15:38:42;1.90;;;1.40;;
4307;SDS011;2167;53.448;9.984;2022-08-03T15:41:07;2.60;;;1.40;;
4307;SDS011;2167;53.448;9.984;2022-08-03T15:43:33;7.13;;;1.77;;
4307;SDS011;2167;53.448;9.984;2022-08-03T15:45:59;3.27;;;1.43;;
4307;SDS011;2167;53.448;9.984;2022-08-03T15:48:25;4.70;;;1.23;;
4307;SDS011;2167;53.448;9.984;2022-08-03T15:50:51;2.70;;;1.60;;
4307;SDS011;2167;53.448;9.984;2022-08-03T15:53:18;3.30;;;1.37;;
4307;SDS011;2167;53.448;9.984;2022-08-03T15:55:45;2.50;;;1.70;;
4307;SDS011;2167;53.448;9.984;2022-08-03T15:58:11;4.17;;;1.43;;
4307;SDS011;2167;53.448;9.984;2022-08-03T16:00:37;3.03;;;1.63;;
4307;SDS011;2167;53.448;9.984;2022-08-03T16:03:03;2.03;;;1.83;;
4307;SDS011;2167;53.448;9.984;2022-08-03T16:05:29;3.80;;;1.70;;
4307;SDS011;2167;53.448;9.984;2022-08-03T16:07:55;5.83;;;1.80;;
4307;SDS011;2167;53.448;9.984;2022-08-03T16:10:20;3.33;;;1.50;;
4307;SDS011;2167;53.448;9.984;2022-08-03T16:12:47;5.33;;;2.50;;